createdAt,value
2022-08-03T00:01:53.143Z,96.68
2022-08-03T00:04:20.122Z,108.10
2022-08-03T00:06:46.852Z,115.87
2022-08-03T00:09:13.592Z,119.90
2022-08-03T00:11:40.461Z,107.43
2022-08-03T00:14:07.749Z,115.53
2022-08-03T00:16:34.738Z,114.85
2022-08-03T00:19:02.256Z,111.82
2022-08-03T00:21:29.312Z,120.93
2022-08-03T00:23:56.528Z,114.93
2022-08-03T00:26:23.398Z,125.35
2022-08-03T00:28:50.838Z,142.00
2022-08-03T00:31:25.515Z,149.30
2022-08-03T00:34:05.033Z,161.70
2022-08-03T00:36:33.069Z,164.13
2022-08-03T00:38:59.911Z,214.15
2022-08-03T00:41:26.772Z,379.40
2022-08-03T00:43:54.891Z,329.02
2022-08-03T00:46:24.574Z,328.20
2022-08-03T00:48:52.397Z,239.68
2022-08-03T00:51:20.711Z,239.35
2022-08-03T00:53:47.868Z,236.35
2022-08-03T00:56:16.002Z,232.50
2022-08-03T00:58:45.154Z,215.15
2022-08-03T01:01:12.759Z,207.30
2022-08-03T01:03:40.169Z,158.05
2022-08-03T01:06:18.278Z,178.90
2022-08-03T01:09:12.191Z,154.30
2022-08-03T01:12:00.843Z,139.18
2022-08-03T01:14:54.834Z,158.45
2022-08-03T01:17:28.774Z,153.30
2022-08-03T01:20:10.219Z,170.38
2022-08-03T01:23:00.685Z,180.00
2022-08-03T01:25:46.010Z,188.27
2022-08-03T01:28:49.523Z,265.70
2022-08-03T01:31:21.034Z,255.98
2022-08-03T01:33:55.419Z,244.43
2022-08-03T01:36:32.123Z,204.70
2022-08-03T01:39:04.939Z,194.80
2022-08-03T01:41:42.461Z,185.48
2022-08-03T01:44:30.046Z,196.63
2022-08-03T01:47:02.240Z,190.80
2022-08-03T01:49:33.901Z,205.35
2022-08-03T01:52:04.049Z,184.98
2022-08-03T01:54:37.512Z,189.23
2022-08-03T01:57:04.736Z,186.27
2022-08-03T01:59:34.396Z,184.40
2022-08-03T02:02:32.144Z,181.82
2022-08-03T02:04:52.571Z,197.23
2022-08-03T02:07:20.126Z,175.00
2022-08-03T02:09:51.851Z,194.52
2022-08-03T02:12:19.745Z,191.23
2022-08-03T02:14:48.585Z,203.05
2022-08-03T02:17:16.537Z,211.85
2022-08-03T02:19:44.463Z,182.80
2022-08-03T02:22:12.775Z,186.07
2022-08-03T02:24:40.042Z,240.10
2022-08-03T02:27:16.180Z,261.90
2022-08-03T02:29:46.731Z,171.93
2022-08-03T02:32:17.904Z,222.52
2022-08-03T02:34:50.479Z,279.38
2022-08-03T02:37:20.065Z,271.23
2022-08-03T02:39:49.228Z,316.85
2022-08-03T02:42:18.633Z,334.55
2022-08-03T02:44:49.878Z,132.97
2022-08-03T02:47:21.265Z,115.38
2022-08-03T02:49:52.402Z,128.20
2022-08-03T02:52:23.171Z,122.57
2022-08-03T02:54:54.903Z,127.80
2022-08-03T02:57:23.233Z,98.73
2022-08-03T02:59:51.522Z,115.00
2022-08-03T03:02:19.691Z,117.15
2022-08-03T03:05:51.816Z,84.57
2022-08-03T03:07:51.406Z,71.57
2022-08-03T03:10:24.582Z,90.95
2022-08-03T03:12:55.663Z,88.05
2022-08-03T03:15:24.332Z,123.13
2022-08-03T03:17:53.459Z,128.35
2022-08-03T03:20:29.741Z,135.50
2022-08-03T03:22:59.561Z,136.40
2022-08-03T03:25:26.714Z,143.98
2022-08-03T03:27:54.568Z,143.63
2022-08-03T03:30:21.690Z,90.50
2022-08-03T03:32:48.958Z,45.90
2022-08-03T03:35:16.615Z,52.28
2022-08-03T03:37:43.542Z,80.70
2022-08-03T03:40:11.092Z,114.20
2022-08-03T03:42:38.409Z,173.13
2022-08-03T03:45:09.029Z,219.83
2022-08-03T03:47:36.508Z,240.07
2022-08-03T03:50:05.518Z,256.53
2022-08-03T03:52:33.927Z,232.40
2022-08-03T03:55:01.559Z,259.60
2022-08-03T03:57:29.535Z,256.17
2022-08-03T03:59:56.788Z,282.45
2022-08-03T04:02:23.753Z,302.17
2022-08-03T04:05:08.952Z,380.40
2022-08-03T04:08:09.191Z,691.70
2022-08-03T04:10:56.255Z,1004.90
2022-08-03T04:13:25.238Z,1227.78
2022-08-03T04:15:52.366Z,1194.97
2022-08-03T04:18:19.988Z,1200.60
2022-08-03T04:20:48.917Z,1187.45
2022-08-03T04:23:18.447Z,1157.70
2022-08-03T04:25:48.487Z,1152.70
2022-08-03T04:28:30.836Z,26.55
2022-08-03T04:31:01.182Z,3.22
2022-08-03T04:33:32.608Z,2.63
2022-08-03T04:36:03.495Z,4.28
2022-08-03T04:38:36.542Z,2.83
2022-08-03T04:41:04.827Z,2.13
2022-08-03T04:43:33.739Z,3.45
2022-08-03T04:46:01.958Z,3.30
2022-08-03T04:48:29.061Z,3.38
2022-08-03T04:50:56.352Z,4.30
2022-08-03T04:53:23.325Z,2.50
2022-08-03T04:55:50.306Z,4.28
2022-08-03T04:58:17.245Z,4.55
2022-08-03T05:00:45.410Z,3.70
2022-08-03T05:03:20.489Z,2.40
2022-08-03T05:05:53.059Z,3.30
2022-08-03T05:08:29.387Z,3.00
2022-08-03T05:10:59.350Z,3.50
2022-08-03T05:13:26.750Z,3.70
2022-08-03T05:15:53.487Z,5.90
2022-08-03T05:18:20.367Z,3.60
2022-08-03T05:20:47.146Z,4.80
2022-08-03T05:23:14.399Z,3.38
2022-08-03T05:25:46.166Z,2.88
2022-08-03T05:28:17.033Z,2.88
2022-08-03T05:30:43.849Z,2.65
2022-08-03T05:33:11.311Z,4.68
2022-08-03T05:36:00.564Z,5.90
2022-08-03T05:38:28.713Z,5.28
2022-08-03T05:41:20.318Z,4.32
2022-08-03T05:43:45.128Z,7.90
2022-08-03T05:46:13.244Z,7.32
2022-08-03T05:48:41.245Z,9.35
2022-08-03T05:51:11.202Z,11.32
2022-08-03T05:53:38.657Z,11.95
2022-08-03T05:56:14.353Z,8.53
2022-08-03T05:58:47.017Z,8.73
2022-08-03T06:01:15.414Z,7.40
2022-08-03T06:03:42.630Z,8.10
2022-08-03T06:06:09.657Z,9.77
2022-08-03T06:08:36.712Z,7.60
2022-08-03T06:11:04.716Z,7.95
2022-08-03T06:13:32.338Z,7.35
2022-08-03T06:16:03.464Z,7.90
2022-08-03T06:18:30.312Z,7.07
2022-08-03T06:20:57.166Z,5.35
2022-08-03T06:23:29.289Z,5.38
2022-08-03T06:26:13.274Z,5.27
2022-08-03T06:28:53.284Z,5.05
2022-08-03T06:31:32.178Z,6.00
2022-08-03T06:34:34.056Z,7.30
2022-08-03T06:36:48.420Z,4.43
2022-08-03T06:39:15.252Z,8.23
2022-08-03T06:41:44.704Z,5.18
2022-08-03T06:44:12.533Z,5.20
2022-08-03T06:46:39.804Z,4.55
2022-08-03T06:49:07.440Z,3.92
2022-08-03T06:52:05.624Z,4.93
2022-08-03T06:54:22.227Z,6.50
2022-08-03T06:56:49.040Z,3.65
2022-08-03T07:00:08.894Z,3.92
2022-08-03T07:02:03.696Z,5.50
2022-08-03T07:04:30.586Z,3.75
2022-08-03T07:06:58.587Z,4.85
2022-08-03T07:09:26.650Z,3.13
2022-08-03T07:11:55.155Z,4.22
2022-08-03T07:14:22.168Z,3.63
2022-08-03T07:16:49.459Z,4.80
2022-08-03T07:19:16.274Z,5.43
2022-08-03T07:21:43.148Z,3.23
2022-08-03T07:24:10.493Z,4.30
2022-08-03T07:26:37.541Z,4.90
2022-08-03T07:29:04.451Z,2.92
2022-08-03T07:31:42.315Z,5.00
2022-08-03T07:34:09.223Z,3.50
2022-08-03T07:36:36.527Z,2.67
2022-08-03T07:39:14.726Z,4.63
2022-08-03T07:41:45.756Z,2.97
2022-08-03T07:44:13.665Z,2.70
2022-08-03T07:46:40.567Z,3.85
2022-08-03T07:49:07.513Z,4.72
2022-08-03T07:51:34.799Z,4.47
2022-08-03T07:54:01.980Z,4.78
2022-08-03T07:56:29.183Z,3.80
2022-08-03T07:58:56.416Z,2.70
2022-08-03T08:01:23.611Z,4.57
2022-08-03T08:03:52.595Z,4.82
2022-08-03T08:06:20.947Z,3.42
2022-08-03T08:08:48.130Z,2.83
2022-08-03T08:11:15.190Z,4.75
2022-08-03T08:13:42.545Z,4.13
2022-08-03T08:16:09.720Z,3.45
2022-08-03T08:18:36.599Z,3.67
2022-08-03T08:21:03.600Z,4.00
2022-08-03T08:23:41.999Z,3.42
2022-08-03T08:26:11.168Z,3.70
2022-08-03T08:28:37.957Z,3.97
2022-08-03T08:31:05.412Z,8.00
2022-08-03T08:34:01.333Z,4.78
2022-08-03T08:36:21.633Z,4.30
2022-08-03T08:38:48.654Z,3.78
2022-08-03T08:41:16.761Z,3.35
2022-08-03T08:43:43.990Z,4.13
2022-08-03T08:46:12.673Z,4.82
2022-08-03T08:48:44.379Z,2.88
2022-08-03T08:51:13.399Z,3.33
2022-08-03T08:53:43.869Z,7.05
2022-08-03T08:56:15.479Z,4.32
2022-08-03T08:58:51.161Z,6.18
2022-08-03T09:01:20.052Z,3.58
2022-08-03T09:03:47.833Z,3.75
2022-08-03T09:06:15.216Z,4.50
2022-08-03T09:08:42.518Z,4.80
2022-08-03T09:11:09.535Z,5.35
2022-08-03T09:13:41.020Z,6.90
2022-08-03T09:16:12.603Z,5.75
2022-08-03T09:18:40.426Z,8.10
2022-08-03T09:21:30.051Z,15.60
2022-08-03T09:24:05.896Z,10.63
2022-08-03T09:26:37.557Z,30.77
2022-08-03T09:29:16.786Z,43.85
2022-08-03T09:31:46.372Z,49.10
2022-08-03T09:34:15.880Z,38.75
2022-08-03T09:36:50.666Z,31.88
2022-08-03T09:39:40.290Z,3.38
2022-08-03T09:42:08.629Z,14.20
2022-08-03T09:44:37.379Z,4.97
2022-08-03T09:47:06.395Z,3.93
2022-08-03T09:49:33.478Z,5.43
2022-08-03T09:52:31.951Z,2.92
2022-08-03T09:55:00.527Z,5.28
2022-08-03T09:57:28.212Z,4.82
2022-08-03T10:00:10.952Z,5.47
2022-08-03T10:02:42.118Z,4.20
2022-08-03T10:05:10.939Z,3.40
2022-08-03T10:07:49.513Z,4.85
2022-08-03T10:10:30.193Z,3.67
2022-08-03T10:12:59.955Z,4.20
2022-08-03T10:16:22.391Z,3.67
2022-08-03T10:18:14.376Z,6.00
2022-08-03T10:20:46.736Z,11.35
2022-08-03T10:23:16.734Z,135.77
2022-08-03T10:25:47.555Z,196.75
2022-08-03T10:28:18.230Z,15.00
2022-08-03T10:30:49.514Z,139.47
2022-08-03T10:33:50.844Z,2.63
2022-08-03T10:36:12.440Z,2.90
2022-08-03T10:38:52.466Z,52.22
2022-08-03T10:41:26.000Z,5.22
2022-08-03T10:44:15.580Z,84.47
2022-08-03T10:46:45.201Z,5.53
2022-08-03T10:49:17.192Z,5.18
2022-08-03T10:52:01.755Z,5.25
2022-08-03T10:55:03.321Z,11.77
2022-08-03T10:57:58.512Z,7.43
2022-08-03T11:00:28.209Z,6.57
2022-08-03T11:03:13.985Z,7.22
2022-08-03T11:05:54.293Z,7.53
2022-08-03T11:08:23.904Z,9.85
2022-08-03T11:10:53.071Z,6.68
2022-08-03T11:13:23.599Z,5.85
2022-08-03T11:15:53.623Z,7.28
2022-08-03T11:18:27.733Z,14.02
2022-08-03T11:20:55.827Z,7.27
2022-08-03T11:24:02.688Z,5.95
2022-08-03T11:26:34.479Z,6.32
2022-08-03T11:29:28.641Z,6.30
2022-08-03T11:31:55.443Z,7.30
2022-08-03T11:34:22.407Z,5.03
2022-08-03T11:37:20.338Z,5.13
2022-08-03T11:39:50.050Z,6.32
2022-08-03T11:42:23.897Z,4.93
2022-08-03T11:44:52.100Z,3.30
2022-08-03T11:47:21.367Z,5.40
2022-08-03T11:49:49.843Z,4.85
2022-08-03T11:52:17.878Z,4.80
2022-08-03T11:54:44.845Z,4.28
2022-08-03T11:57:12.062Z,5.23
2022-08-03T11:59:39.032Z,5.53
2022-08-03T12:02:16.205Z,4.53
2022-08-03T12:05:02.359Z,4.22
2022-08-03T12:08:03.337Z,3.90
2022-08-03T12:10:17.366Z,3.90
2022-08-03T12:12:46.719Z,3.28
2022-08-03T12:15:13.840Z,3.97
2022-08-03T12:17:41.749Z,4.55
2022-08-03T12:20:10.172Z,4.85
2022-08-03T12:22:39.486Z,4.93
2022-08-03T12:25:20.008Z,5.22
2022-08-03T12:28:37.021Z,32.60
2022-08-03T12:31:09.474Z,14.40
2022-08-03T12:34:02.706Z,4.15
2022-08-03T12:36:31.737Z,5.03
2022-08-03T12:39:06.630Z,19.20
2022-08-03T12:41:35.807Z,6.53
2022-08-03T12:44:05.331Z,5.25
2022-08-03T12:46:44.140Z,4.15
2022-08-03T12:49:18.468Z,4.30
2022-08-03T12:51:45.281Z,30.50
2022-08-03T12:54:24.878Z,6.85
2022-08-03T12:57:05.513Z,4.43
2022-08-03T12:59:40.847Z,17.10
2022-08-03T13:02:20.297Z,21.65
2022-08-03T13:04:52.484Z,21.97
2022-08-03T13:07:20.899Z,22.97
2022-08-03T13:09:56.036Z,39.33
2022-08-03T13:12:25.437Z,8.75
2022-08-03T13:14:55.943Z,36.53
2022-08-03T13:17:22.871Z,6.50
2022-08-03T13:19:50.479Z,23.38
2022-08-03T13:22:23.646Z,20.65
2022-08-03T13:24:52.909Z,15.45
2022-08-03T13:28:00.017Z,22.48
2022-08-03T13:30:07.903Z,16.73
2022-08-03T13:32:34.950Z,5.47
2022-08-03T13:35:03.091Z,17.23
2022-08-03T13:37:32.089Z,4.20
2022-08-03T13:40:02.769Z,4.45
2022-08-03T13:42:33.058Z,4.25
2022-08-03T13:45:00.872Z,3.40
2022-08-03T13:47:28.108Z,5.00
2022-08-03T13:50:01.226Z,4.75
2022-08-03T13:52:30.830Z,5.40
2022-08-03T13:54:58.459Z,2.67
2022-08-03T13:58:04.187Z,3.50
2022-08-03T14:00:12.560Z,2.40
2022-08-03T14:02:39.406Z,3.93
2022-08-03T14:05:06.490Z,1.83
2022-08-03T14:07:33.783Z,3.55
2022-08-03T14:10:01.845Z,2.30
2022-08-03T14:12:28.963Z,2.45
2022-08-03T14:14:58.266Z,4.85
2022-08-03T14:17:27.956Z,4.75
2022-08-03T14:20:38.701Z,2.50
2022-08-03T14:22:56.895Z,1.95
2022-08-03T14:25:23.818Z,3.95
2022-08-03T14:27:50.716Z,2.33
2022-08-03T14:30:17.780Z,4.63
2022-08-03T14:32:44.634Z,2.53
2022-08-03T14:35:11.369Z,12.15
2022-08-03T14:37:38.352Z,4.87
2022-08-03T14:40:06.002Z,4.05
2022-08-03T14:42:33.083Z,4.90
2022-08-03T14:45:04.607Z,3.20
2022-08-03T14:47:33.214Z,1.60
2022-08-03T14:50:37.795Z,12.50
2022-08-03T14:53:06.987Z,23.52
2022-08-03T14:55:38.132Z,11.90
2022-08-03T14:58:19.341Z,5.78
2022-08-03T15:00:47.506Z,16.42
2022-08-03T15:03:16.595Z,7.30
2022-08-03T15:05:44.485Z,3.55
2022-08-03T15:08:11.363Z,4.47
2022-08-03T15:10:44.535Z,6.82
2022-08-03T15:13:13.251Z,7.05
2022-08-03T15:15:40.993Z,8.30
2022-08-03T15:18:08.288Z,3.95
2022-08-03T15:20:50.435Z,4.93
2022-08-03T15:23:18.670Z,53.83
2022-08-03T15:26:02.234Z,27.23
2022-08-03T15:28:33.238Z,29.20
2022-08-03T15:31:00.669Z,27.60
2022-08-03T15:33:28.237Z,11.65
2022-08-03T15:35:56.126Z,6.43
2022-08-03T15:38:26.311Z,11.07
2022-08-03T15:40:54.682Z,14.40
2022-08-03T15:43:22.852Z,30.88
2022-08-03T15:45:54.646Z,12.43
2022-08-03T15:48:36.552Z,10.55
2022-08-03T15:51:04.673Z,1.90
2022-08-03T15:53:31.750Z,3.40
2022-08-03T15:55:58.509Z,8.13
2022-08-03T15:59:09.156Z,31.85
2022-08-03T16:01:19.820Z,12.00
2022-08-03T16:03:47.109Z,10.23
2022-08-03T16:06:14.103Z,10.95
2022-08-03T16:08:40.922Z,7.70
2022-08-03T16:11:08.031Z,5.43
2022-08-03T16:14:13.375Z,4.38
2022-08-03T16:16:21.631Z,10.77
2022-08-03T16:18:48.470Z,11.70
2022-08-03T16:21:19.279Z,2.90
2022-08-03T16:23:48.900Z,5.90
2022-08-03T16:26:15.809Z,5.32
2022-08-03T16:28:42.642Z,3.60
2022-08-03T16:31:09.593Z,3.58
2022-08-03T16:33:36.545Z,4.30
2022-08-03T16:36:03.719Z,5.33
2022-08-03T16:38:31.161Z,2.72
2022-08-03T16:40:58.492Z,3.10
2022-08-03T16:43:25.375Z,3.00
2022-08-03T16:45:52.194Z,2.80
2022-08-03T16:48:19.758Z,2.30
2022-08-03T16:50:47.362Z,4.68
2022-08-03T16:53:16.666Z,2.17
2022-08-03T16:55:53.193Z,2.15
2022-08-03T16:58:34.903Z,4.28
2022-08-03T17:01:21.879Z,3.27
2022-08-03T17:04:03.006Z,3.10
2022-08-03T17:06:35.050Z,2.25
2022-08-03T17:09:09.942Z,2.55
2022-08-03T17:11:46.533Z,2.42
2022-08-03T17:14:21.842Z,3.87
2022-08-03T17:16:52.637Z,3.13
2022-08-03T17:19:23.335Z,3.00
2022-08-03T17:22:04.614Z,2.60
2022-08-03T17:24:41.592Z,2.20
2022-08-03T17:28:41.640Z,2.53
2022-08-03T17:30:12.146Z,3.10
2022-08-03T17:32:56.526Z,2.70
2022-08-03T17:35:36.391Z,2.60
2022-08-03T17:38:06.689Z,2.83
2022-08-03T17:40:34.696Z,3.47
2022-08-03T17:44:14.281Z,3.43
2022-08-03T17:45:54.941Z,3.05
2022-08-03T17:48:25.061Z,2.90
2022-08-03T17:51:06.559Z,3.70
2022-08-03T17:53:38.457Z,5.07
2022-08-03T17:56:40.351Z,64.22
2022-08-03T17:59:52.151Z,35.08
2022-08-03T18:02:48.096Z,56.28
2022-08-03T18:05:18.311Z,37.42
2022-08-03T18:07:59.459Z,63.05
2022-08-03T18:10:34.884Z,14.18
2022-08-03T18:13:21.383Z,114.22
2022-08-03T18:16:01.540Z,43.60
2022-08-03T18:18:44.835Z,38.08
2022-08-03T18:21:16.994Z,44.38
2022-08-03T18:23:45.744Z,53.47
2022-08-03T18:26:17.546Z,43.72
2022-08-03T18:28:44.831Z,188.35
2022-08-03T18:31:53.429Z,87.72
2022-08-03T18:34:18.378Z,133.37
2022-08-03T18:36:50.298Z,130.95
2022-08-03T18:39:19.686Z,7.63
2022-08-03T18:41:46.901Z,5.88
2022-08-03T18:44:45.570Z,3.47
2022-08-03T18:47:06.989Z,3.55
2022-08-03T18:49:58.007Z,1.90
2022-08-03T18:52:45.829Z,3.08
2022-08-03T18:55:32.931Z,3.20
2022-08-03T18:58:15.991Z,4.30
2022-08-03T19:02:00.163Z,4.95
2022-08-03T19:04:13.832Z,3.85
2022-08-03T19:06:45.887Z,3.35
2022-08-03T19:09:22.910Z,3.95
2022-08-03T19:12:14.332Z,2.83
2022-08-03T19:14:47.499Z,4.60
2022-08-03T19:17:14.315Z,4.75
2022-08-03T19:19:51.206Z,6.53
2022-08-03T19:22:22.936Z,5.50
2022-08-03T19:24:51.522Z,5.25
2022-08-03T19:27:20.205Z,5.05
2022-08-03T19:29:58.477Z,5.88
2022-08-03T19:32:31.131Z,3.78
2022-08-03T19:35:00.181Z,4.90
2022-08-03T19:40:15.000Z,3.33
2022-08-03T19:42:50.011Z,4.50
2022-08-03T19:46:06.071Z,3.40
2022-08-03T19:48:18.907Z,4.85
2022-08-03T19:50:53.247Z,4.20
2022-08-03T19:53:23.110Z,5.30
2022-08-03T19:56:05.496Z,3.77
2022-08-03T19:58:33.559Z,5.40
2022-08-03T20:01:00.562Z,4.00
2022-08-03T20:03:48.100Z,3.15
2022-08-03T20:06:21.764Z,4.27
2022-08-03T20:08:51.650Z,3.30
2022-08-03T20:11:19.909Z,4.22
2022-08-03T20:13:48.966Z,4.03
2022-08-03T20:16:16.003Z,2.73
2022-08-03T20:18:43.171Z,3.38
2022-08-03T20:21:15.580Z,2.30
2022-08-03T20:24:01.790Z,2.97
2022-08-03T20:26:31.135Z,2.80
2022-08-03T20:29:08.982Z,4.50
2022-08-03T20:31:37.467Z,2.58
2022-08-03T20:34:06.116Z,3.20
2022-08-03T20:36:33.086Z,2.00
2022-08-03T20:39:00.109Z,2.95
2022-08-03T20:41:27.187Z,3.70
2022-08-03T20:43:54.564Z,2.72
2022-08-03T20:46:30.121Z,3.33
2022-08-03T20:49:04.583Z,2.20
2022-08-03T20:51:50.158Z,3.23
2022-08-03T20:54:29.751Z,2.47
2022-08-03T20:57:04.068Z,2.78
2022-08-03T20:59:50.711Z,1.95
2022-08-03T21:02:28.806Z,2.38
2022-08-03T21:04:59.009Z,3.70
2022-08-03T21:07:45.582Z,2.58
2022-08-03T21:10:15.544Z,4.07
2022-08-03T21:12:51.535Z,3.87
2022-08-03T21:13:08.841Z,2.20
2022-08-03T21:16:03.188Z,5.00
2022-08-03T21:18:14.478Z,2.50
2022-08-03T21:20:43.810Z,4.03
2022-08-03T21:23:12.451Z,2.95
2022-08-03T21:26:00.788Z,3.25
2022-08-03T21:28:28.769Z,6.28
2022-08-03T21:30:58.334Z,5.07
2022-08-03T21:33:27.699Z,2.57
2022-08-03T21:35:54.642Z,4.70
2022-08-03T21:38:30.164Z,5.57
2022-08-03T21:40:57.324Z,3.15
2022-08-03T21:43:24.066Z,4.30
2022-08-03T21:45:54.602Z,3.08
2022-08-03T21:48:25.863Z,5.78
2022-08-03T21:50:53.453Z,3.20
2022-08-03T21:53:21.608Z,3.13
2022-08-03T21:55:57.267Z,4.18
2022-08-03T21:58:40.927Z,3.83
2022-08-03T22:01:10.166Z,3.17
2022-08-03T22:03:53.335Z,2.93
2022-08-03T22:06:21.994Z,4.28
2022-08-03T22:08:51.503Z,2.45
2022-08-03T22:11:19.285Z,3.40
2022-08-03T22:13:46.379Z,3.05
2022-08-03T22:16:14.388Z,2.58
2022-08-03T22:18:43.395Z,1.60
2022-08-03T22:21:12.575Z,2.40
2022-08-03T22:23:41.831Z,4.90
2022-08-03T22:26:35.248Z,2.65
2022-08-03T22:29:07.274Z,3.00
2022-08-03T22:31:58.189Z,3.42
2022-08-03T22:34:26.918Z,2.45
2022-08-03T22:36:57.280Z,3.65
2022-08-03T22:39:28.847Z,3.13
2022-08-03T22:41:59.286Z,2.33
2022-08-03T22:44:27.177Z,1.77
2022-08-03T22:46:54.535Z,3.65
2022-08-03T22:49:22.465Z,3.60
2022-08-03T22:51:51.862Z,1.70
2022-08-03T22:54:18.968Z,3.08
2022-08-03T22:56:50.381Z,3.25
2022-08-03T22:59:39.875Z,3.70
2022-08-03T23:02:20.750Z,1.98
2022-08-03T23:04:55.379Z,2.27
2022-08-03T23:07:31.845Z,1.65
2022-08-03T23:10:01.643Z,3.07
2022-08-03T23:12:30.280Z,3.45
2022-08-03T23:15:02.359Z,2.28
2022-08-03T23:17:32.216Z,1.65
2022-08-03T23:20:04.698Z,2.53
2022-08-03T23:22:39.650Z,3.78
2022-08-03T23:25:11.284Z,2.53
2022-08-03T23:27:40.838Z,3.78
2022-08-03T23:30:10.009Z,2.17
2022-08-03T23:32:37.390Z,2.07
2022-08-03T23:36:28.467Z,3.00
2022-08-03T23:38:22.070Z,1.73
2022-08-03T23:40:51.368Z,2.13
2022-08-03T23:43:45.135Z,3.40
2022-08-03T23:46:08.925Z,2.33
2022-08-03T23:48:36.022Z,2.33
2022-08-03T23:51:39.075Z,2.05
2022-08-03T23:54:08.619Z,2.78
2022-08-03T23:56:54.071Z,3.22
2022-08-03T23:59:40.304Z,2.08
